createdAt,value
2019-01-14T00:01:06.031Z,19.97
2019-01-14T00:03:37.456Z,19.00
2019-01-14T00:06:10.299Z,18.47
2019-01-14T00:08:40.020Z,21.67
2019-01-14T00:11:09.457Z,19.63
2019-01-14T00:13:45.667Z,20.30
2019-01-14T00:16:21.831Z,24.23
2019-01-14T00:18:51.354Z,22.40
2019-01-14T00:21:20.774Z,18.37
2019-01-14T00:23:57.075Z,14.23
2019-01-14T00:26:34.876Z,25.77
2019-01-14T00:29:04.972Z,16.97
2019-01-14T00:31:40.262Z,15.27
2019-01-14T00:34:09.964Z,15.00
2019-01-14T00:36:45.283Z,13.07
2019-01-14T00:39:14.763Z,14.03
2019-01-14T00:41:44.248Z,12.80
2019-01-14T00:44:13.631Z,16.50
2019-01-14T00:46:45.043Z,14.43
2019-01-14T00:49:17.847Z,13.03
2019-01-14T00:51:47.277Z,13.57
2019-01-14T00:54:16.773Z,10.80
2019-01-14T00:56:55.354Z,15.40
2019-01-14T00:59:26.757Z,14.80
2019-01-14T01:01:56.176Z,15.23
2019-01-14T01:04:29.676Z,13.63
2019-01-14T01:07:04.893Z,12.50
2019-01-14T01:09:38.268Z,19.77
2019-01-14T01:12:08.368Z,13.63
2019-01-14T01:14:39.840Z,13.20
2019-01-14T01:17:09.371Z,15.73
2019-01-14T01:19:41.817Z,10.17
2019-01-14T01:22:17.279Z,15.07
2019-01-14T01:24:46.827Z,11.10
2019-01-14T01:27:24.374Z,13.17
2019-01-14T01:29:53.678Z,15.13
2019-01-14T01:32:32.199Z,17.27
2019-01-14T01:35:01.663Z,11.73
2019-01-14T01:37:32.156Z,13.83
2019-01-14T01:40:01.650Z,15.63
2019-01-14T01:42:32.104Z,12.90
2019-01-14T01:45:02.547Z,16.83
2019-01-14T01:47:35.278Z,21.33
2019-01-14T01:50:06.048Z,16.40
2019-01-14T01:52:35.512Z,17.17
2019-01-14T01:55:05.470Z,14.80
2019-01-14T01:57:36.488Z,14.60
2019-01-14T02:00:08.616Z,21.13
2019-01-14T02:02:38.057Z,11.70
2019-01-14T02:05:16.690Z,11.07
2019-01-14T02:07:51.981Z,13.60
2019-01-14T02:10:23.020Z,5.63
2019-01-14T02:13:12.268Z,9.57
2019-01-14T02:15:43.678Z,13.10
2019-01-14T02:18:13.178Z,9.07
2019-01-14T02:20:42.560Z,9.00
2019-01-14T02:23:12.006Z,8.20
2019-01-14T02:25:41.389Z,9.87
2019-01-14T02:28:10.778Z,7.57
2019-01-14T02:30:40.217Z,7.73
2019-01-14T02:33:11.918Z,8.17
2019-01-14T02:35:41.336Z,9.10
2019-01-14T02:38:10.705Z,8.20
2019-01-14T02:40:43.227Z,12.87
2019-01-14T02:43:14.009Z,7.53
2019-01-14T02:45:43.447Z,9.83
2019-01-14T02:48:12.854Z,7.43
2019-01-14T02:50:42.305Z,9.70
2019-01-14T02:53:14.434Z,11.70
2019-01-14T02:55:43.941Z,11.90
2019-01-14T02:58:14.338Z,7.30
2019-01-14T03:00:43.777Z,10.93
2019-01-14T03:03:22.212Z,7.53
2019-01-14T03:05:52.690Z,9.20
2019-01-14T03:08:26.388Z,5.53
2019-01-14T03:10:58.669Z,8.67
2019-01-14T03:13:30.539Z,7.50
2019-01-14T03:16:00.072Z,9.00
2019-01-14T03:18:29.534Z,9.73
2019-01-14T03:20:58.971Z,10.40
2019-01-14T03:23:36.204Z,7.67
2019-01-14T03:26:11.781Z,9.77
2019-01-14T03:28:41.180Z,8.60
2019-01-14T03:31:16.578Z,6.90
2019-01-14T03:33:58.144Z,8.80
2019-01-14T03:36:28.662Z,9.47
2019-01-14T03:38:58.278Z,9.37
2019-01-14T03:41:27.794Z,8.57
2019-01-14T03:44:15.422Z,9.73
2019-01-14T03:46:44.878Z,10.23
2019-01-14T03:49:14.340Z,8.70
2019-01-14T03:51:44.000Z,8.47
2019-01-14T03:54:20.835Z,8.77
2019-01-14T03:56:51.507Z,13.03
2019-01-14T03:59:21.960Z,12.53
2019-01-14T04:01:53.578Z,16.13
2019-01-14T04:04:30.951Z,13.97
2019-01-14T04:07:13.832Z,14.93
2019-01-14T04:09:44.680Z,17.10
2019-01-14T04:12:14.084Z,13.77
2019-01-14T04:14:50.406Z,9.10
2019-01-14T04:17:19.848Z,11.90
2019-01-14T04:19:50.246Z,11.53
2019-01-14T04:22:23.761Z,12.73
2019-01-14T04:24:53.181Z,21.57
2019-01-14T04:27:23.617Z,18.73
2019-01-14T04:29:53.025Z,17.20
2019-01-14T04:32:25.747Z,25.77
2019-01-14T04:35:16.210Z,21.17
2019-01-14T04:37:47.895Z,15.17
2019-01-14T04:40:17.346Z,22.20
2019-01-14T04:42:47.048Z,16.00
2019-01-14T04:45:17.466Z,20.30
2019-01-14T04:47:46.932Z,16.03
2019-01-14T04:50:19.245Z,24.53
2019-01-14T04:53:02.744Z,18.37
2019-01-14T04:55:41.300Z,17.40
2019-01-14T04:58:10.761Z,20.53
2019-01-14T05:00:42.264Z,11.57
2019-01-14T05:03:16.660Z,18.20
2019-01-14T05:05:46.106Z,19.07
2019-01-14T05:08:15.512Z,20.30
2019-01-14T05:10:53.698Z,20.73
2019-01-14T05:13:23.135Z,20.70
2019-01-14T05:15:52.589Z,18.70
2019-01-14T05:18:23.166Z,17.70
2019-01-14T05:20:52.733Z,14.93
2019-01-14T05:23:24.382Z,15.97
2019-01-14T05:25:53.832Z,15.17
2019-01-14T05:28:23.342Z,15.90
2019-01-14T05:30:53.744Z,13.67
2019-01-14T05:33:26.768Z,16.43
2019-01-14T05:35:57.239Z,15.50
2019-01-14T05:38:26.776Z,21.83
2019-01-14T05:41:03.114Z,15.77
2019-01-14T05:43:32.539Z,16.90
2019-01-14T05:46:16.525Z,16.50
2019-01-14T05:48:45.984Z,15.67
2019-01-14T05:51:16.450Z,17.00
2019-01-14T05:53:45.853Z,14.80
2019-01-14T05:56:15.261Z,17.57
2019-01-14T05:58:46.724Z,23.00
2019-01-14T06:01:16.124Z,19.60
2019-01-14T06:03:46.602Z,14.03
2019-01-14T06:06:15.954Z,20.90
2019-01-14T06:08:47.740Z,16.50
2019-01-14T06:11:27.216Z,15.40
2019-01-14T06:13:56.883Z,14.33
2019-01-14T06:16:26.235Z,21.47
2019-01-14T06:19:01.511Z,20.00
2019-01-14T06:21:36.996Z,15.00
2019-01-14T06:24:06.380Z,22.83
2019-01-14T06:26:35.788Z,18.83
2019-01-14T06:29:06.289Z,20.73
2019-01-14T06:31:37.676Z,15.00
2019-01-14T06:34:15.993Z,17.10
2019-01-14T06:36:45.305Z,18.10
2019-01-14T06:39:17.835Z,21.27
2019-01-14T06:41:47.216Z,18.93
2019-01-14T06:44:29.668Z,17.60
2019-01-14T06:47:11.171Z,22.33
2019-01-14T06:49:40.596Z,15.00
2019-01-14T06:52:10.099Z,20.17
2019-01-14T06:54:41.724Z,14.27
2019-01-14T06:57:11.395Z,18.50
2019-01-14T06:59:43.936Z,19.33
2019-01-14T07:02:19.189Z,19.63
2019-01-14T07:04:48.538Z,17.40
2019-01-14T07:07:32.102Z,18.17
2019-01-14T07:10:01.496Z,20.27
2019-01-14T07:12:40.089Z,25.03
2019-01-14T07:15:10.107Z,18.33
2019-01-14T07:17:39.589Z,14.03
2019-01-14T07:20:09.388Z,15.83
2019-01-14T07:22:38.778Z,12.60
2019-01-14T07:25:08.431Z,13.67
2019-01-14T07:27:49.937Z,14.13
2019-01-14T07:30:21.683Z,21.73
2019-01-14T07:32:59.178Z,30.00
2019-01-14T07:35:33.724Z,16.77
2019-01-14T07:38:06.860Z,19.50
2019-01-14T07:40:35.346Z,18.90
2019-01-14T07:43:04.740Z,14.13
2019-01-14T07:45:36.336Z,16.47
2019-01-14T07:48:05.825Z,11.80
2019-01-14T07:50:43.434Z,13.57
2019-01-14T07:53:12.835Z,17.40
2019-01-14T07:55:43.364Z,16.80
2019-01-14T07:58:12.754Z,11.50
2019-01-14T08:00:42.522Z,12.13
2019-01-14T08:03:11.991Z,13.97
2019-01-14T08:05:42.423Z,11.40
2019-01-14T08:08:44.669Z,9.67
2019-01-14T08:11:15.140Z,13.87
2019-01-14T08:13:46.059Z,12.37
2019-01-14T08:16:15.514Z,10.40
2019-01-14T08:18:45.952Z,14.27
2019-01-14T08:21:15.371Z,11.33
2019-01-14T08:23:46.962Z,13.27
2019-01-14T08:26:17.352Z,11.43
2019-01-14T08:28:48.732Z,14.70
2019-01-14T08:31:17.917Z,14.90
2019-01-14T08:33:47.377Z,14.97
2019-01-14T08:36:33.148Z,15.10
2019-01-14T08:39:04.529Z,9.53
2019-01-14T08:41:36.799Z,17.00
2019-01-14T08:44:09.457Z,14.93
2019-01-14T08:46:43.239Z,13.23
2019-01-14T08:49:15.067Z,14.10
2019-01-14T08:51:48.680Z,17.93
2019-01-14T08:54:20.182Z,15.57
2019-01-14T08:56:49.722Z,20.03
2019-01-14T08:59:20.449Z,11.90
2019-01-14T09:01:49.941Z,10.97
2019-01-14T09:04:22.677Z,17.50
2019-01-14T09:06:51.436Z,12.27
2019-01-14T09:09:20.890Z,20.67
2019-01-14T09:11:50.352Z,16.30
2019-01-14T09:14:25.795Z,12.97
2019-01-14T09:16:56.842Z,14.97
2019-01-14T09:19:27.319Z,18.10
2019-01-14T09:21:56.748Z,14.73
2019-01-14T09:24:37.334Z,21.53
2019-01-14T09:27:06.854Z,17.93
2019-01-14T09:29:36.399Z,17.33
2019-01-14T09:32:06.750Z,18.33
2019-01-14T09:34:36.181Z,18.03
2019-01-14T09:37:13.758Z,16.67
2019-01-14T09:39:48.645Z,12.63
2019-01-14T09:42:20.047Z,13.40
2019-01-14T09:44:51.490Z,17.13
2019-01-14T09:47:23.213Z,15.37
2019-01-14T09:49:52.654Z,14.27
2019-01-14T09:52:28.510Z,16.60
2019-01-14T09:55:05.440Z,19.67
2019-01-14T09:57:32.411Z,17.53
2019-01-14T10:00:02.816Z,11.43
2019-01-14T10:02:32.243Z,13.37
2019-01-14T10:05:02.580Z,13.10
2019-01-14T10:07:33.069Z,16.30
2019-01-14T10:10:02.497Z,14.40
2019-01-14T10:12:40.863Z,14.30
2019-01-14T10:15:13.424Z,11.33
2019-01-14T10:17:43.333Z,13.17
2019-01-14T10:20:16.913Z,15.33
2019-01-14T10:22:51.586Z,16.00
2019-01-14T10:25:21.088Z,15.13
2019-01-14T10:27:50.543Z,15.00
2019-01-14T10:30:28.329Z,10.83
2019-01-14T10:33:03.587Z,11.73
2019-01-14T10:35:34.042Z,11.20
2019-01-14T10:38:03.475Z,9.70
2019-01-14T10:40:35.008Z,13.03
2019-01-14T10:43:10.465Z,9.20
2019-01-14T10:46:05.894Z,7.67
2019-01-14T10:48:44.401Z,5.77
2019-01-14T10:51:15.950Z,10.37
2019-01-14T10:53:48.501Z,8.87
2019-01-14T10:56:18.403Z,11.87
2019-01-14T10:58:52.908Z,10.40
2019-01-14T11:01:31.523Z,16.47
2019-01-14T11:04:09.289Z,15.13
2019-01-14T11:06:39.254Z,9.87
2019-01-14T11:09:10.803Z,10.60
2019-01-14T11:11:40.263Z,8.37
2019-01-14T11:14:10.691Z,10.70
2019-01-14T11:16:40.071Z,12.17
2019-01-14T11:19:09.600Z,10.20
2019-01-14T11:21:42.297Z,11.97
2019-01-14T11:24:11.759Z,7.27
2019-01-14T11:26:43.172Z,14.13
2019-01-14T11:29:17.740Z,10.63
2019-01-14T11:31:52.279Z,10.90
2019-01-14T11:34:26.929Z,10.27
2019-01-14T11:36:56.384Z,9.23
2019-01-14T11:39:25.875Z,11.57
2019-01-14T11:41:55.708Z,10.50
2019-01-14T11:44:25.218Z,10.67
2019-01-14T11:46:57.738Z,11.80
2019-01-14T11:49:38.275Z,11.23
2019-01-14T11:52:13.989Z,9.53
2019-01-14T11:55:02.690Z,10.83
2019-01-14T11:57:32.166Z,7.87
2019-01-14T12:00:01.614Z,8.67
2019-01-14T12:02:46.208Z,10.27
2019-01-14T12:05:16.704Z,11.53
2019-01-14T12:07:47.202Z,13.77
2019-01-14T12:10:16.768Z,10.67
2019-01-14T12:12:48.587Z,10.70
2019-01-14T12:15:21.426Z,6.80
2019-01-14T12:17:50.888Z,8.43
2019-01-14T12:20:21.316Z,9.57
2019-01-14T12:22:58.713Z,10.07
2019-01-14T12:25:28.157Z,11.87
2019-01-14T12:27:57.702Z,4.63
2019-01-14T12:30:41.780Z,5.73
2019-01-14T12:33:11.437Z,9.63
2019-01-14T12:35:40.937Z,6.50
2019-01-14T12:38:21.590Z,11.10
2019-01-14T12:40:52.978Z,7.73
2019-01-14T12:43:28.224Z,5.30
2019-01-14T12:46:00.472Z,9.97
2019-01-14T12:48:30.958Z,7.83
2019-01-14T12:51:02.437Z,7.40
2019-01-14T12:53:31.874Z,7.97
2019-01-14T12:56:01.302Z,5.87
2019-01-14T12:58:34.949Z,7.83
2019-01-14T13:01:17.482Z,7.30
2019-01-14T13:03:46.898Z,7.70
2019-01-14T13:06:18.120Z,12.43
2019-01-14T13:08:48.389Z,8.63
2019-01-14T13:11:17.828Z,7.80
2019-01-14T13:13:47.234Z,11.67
2019-01-14T13:16:17.716Z,8.37
2019-01-14T13:18:49.013Z,9.53
2019-01-14T13:21:18.814Z,9.53
2019-01-14T13:23:50.259Z,10.87
2019-01-14T13:26:19.821Z,9.40
2019-01-14T13:28:51.210Z,7.20
2019-01-14T13:31:20.687Z,10.43
2019-01-14T13:33:50.140Z,9.17
2019-01-14T13:36:20.598Z,7.40
2019-01-14T13:38:50.093Z,8.63
2019-01-14T13:41:19.586Z,8.77
2019-01-14T13:43:49.024Z,6.10
2019-01-14T13:46:26.331Z,5.53
2019-01-14T13:48:57.063Z,11.10
2019-01-14T13:51:31.832Z,10.60
2019-01-14T13:54:11.440Z,7.63
2019-01-14T13:56:40.814Z,6.97
2019-01-14T13:59:10.305Z,4.83
2019-01-14T14:01:40.831Z,7.47
2019-01-14T14:04:24.623Z,6.33
2019-01-14T14:06:54.101Z,6.67
2019-01-14T14:09:26.618Z,6.97
2019-01-14T14:11:56.060Z,8.07
2019-01-14T14:14:27.458Z,8.53
2019-01-14T14:17:02.975Z,7.90
2019-01-14T14:19:32.477Z,5.53
2019-01-14T14:22:03.911Z,4.73
2019-01-14T14:24:35.395Z,4.13
2019-01-14T14:27:04.973Z,6.73
2019-01-14T14:29:50.557Z,6.17
2019-01-14T14:32:20.015Z,4.33
2019-01-14T14:34:51.504Z,9.07
2019-01-14T14:37:28.828Z,7.77
2019-01-14T14:40:00.393Z,7.63
2019-01-14T14:42:30.850Z,5.83
2019-01-14T14:45:01.002Z,9.10
2019-01-14T14:47:37.295Z,5.43
2019-01-14T14:50:10.216Z,8.40
2019-01-14T14:52:39.573Z,9.00
2019-01-14T14:55:09.041Z,10.97
2019-01-14T14:57:38.601Z,6.63
2019-01-14T15:00:14.289Z,7.37
2019-01-14T15:02:43.763Z,14.17
2019-01-14T15:05:21.662Z,8.50
2019-01-14T15:07:51.815Z,9.27
2019-01-14T15:10:22.837Z,7.73
2019-01-14T15:13:05.640Z,5.40
2019-01-14T15:15:41.125Z,8.63
2019-01-14T15:18:12.636Z,9.30
2019-01-14T15:20:42.083Z,6.97
2019-01-14T15:23:11.527Z,8.70
2019-01-14T15:25:43.028Z,13.07
2019-01-14T15:28:12.458Z,10.63
2019-01-14T15:30:45.215Z,10.17
2019-01-14T15:33:14.754Z,11.83
2019-01-14T15:35:44.324Z,12.93
2019-01-14T15:38:13.755Z,11.20
2019-01-14T15:40:43.221Z,15.10
2019-01-14T15:43:14.650Z,10.93
2019-01-14T15:45:50.443Z,11.00
2019-01-14T15:48:19.873Z,14.27
2019-01-14T15:50:54.438Z,11.97
2019-01-14T15:53:23.873Z,8.13
2019-01-14T15:55:53.372Z,12.47
2019-01-14T15:58:22.775Z,10.10
2019-01-14T16:00:52.233Z,10.00
2019-01-14T16:03:22.768Z,14.57
2019-01-14T16:05:52.291Z,11.27
2019-01-14T16:08:24.949Z,11.60
2019-01-14T16:11:05.434Z,9.13
2019-01-14T16:13:36.933Z,7.73
2019-01-14T16:16:07.329Z,12.13
2019-01-14T16:18:37.814Z,11.33
2019-01-14T16:21:08.257Z,10.67
2019-01-14T16:23:37.764Z,11.00
2019-01-14T16:26:10.816Z,11.00
2019-01-14T16:28:40.288Z,10.70
2019-01-14T16:31:11.723Z,12.23
2019-01-14T16:33:41.591Z,14.27
2019-01-14T16:36:11.108Z,15.37
2019-01-14T16:38:41.597Z,8.83
2019-01-14T16:41:16.380Z,12.07
2019-01-14T16:43:45.842Z,10.57
2019-01-14T16:46:17.303Z,10.80
2019-01-14T16:48:48.839Z,8.27
2019-01-14T16:51:24.456Z,17.00
2019-01-14T16:53:53.906Z,13.53
2019-01-14T16:56:29.218Z,10.73
2019-01-14T16:58:58.621Z,9.07
2019-01-14T17:01:28.068Z,14.17
2019-01-14T17:03:57.554Z,10.10
2019-01-14T17:06:28.019Z,11.73
2019-01-14T17:09:01.588Z,11.37
2019-01-14T17:11:38.833Z,15.47
2019-01-14T17:14:10.277Z,13.30
2019-01-14T17:16:40.698Z,11.00
2019-01-14T17:19:10.184Z,13.80
2019-01-14T17:21:39.667Z,11.37
2019-01-14T17:24:18.102Z,9.20
2019-01-14T17:26:47.531Z,12.83
2019-01-14T17:29:26.238Z,11.40
2019-01-14T17:31:55.633Z,6.77
2019-01-14T17:34:27.398Z,11.60
2019-01-14T17:36:56.946Z,11.60
2019-01-14T17:39:27.364Z,14.80
2019-01-14T17:41:58.518Z,11.97
2019-01-14T17:44:27.999Z,15.97
2019-01-14T17:46:59.408Z,10.93
2019-01-14T17:49:30.002Z,8.13
2019-01-14T17:51:59.524Z,11.73
2019-01-14T17:54:30.002Z,5.83
2019-01-14T17:57:01.616Z,11.80
2019-01-14T17:59:31.046Z,7.87
2019-01-14T18:02:00.509Z,11.77
2019-01-14T18:04:35.828Z,10.47
2019-01-14T18:07:19.800Z,9.50
2019-01-14T18:09:51.202Z,9.83
2019-01-14T18:12:20.642Z,10.33
2019-01-14T18:15:02.332Z,9.77
2019-01-14T18:17:34.572Z,8.17
2019-01-14T18:20:05.246Z,16.00
2019-01-14T18:22:34.664Z,16.03
2019-01-14T18:25:06.865Z,12.03
2019-01-14T18:27:36.387Z,16.97
2019-01-14T18:30:10.534Z,10.67
2019-01-14T18:32:40.042Z,11.40
2019-01-14T18:35:10.431Z,15.13
2019-01-14T18:37:39.950Z,11.90
2019-01-14T18:40:12.621Z,13.60
2019-01-14T18:42:42.303Z,12.03
2019-01-14T18:45:19.567Z,8.37
2019-01-14T18:47:49.419Z,13.53
2019-01-14T18:50:22.684Z,13.30
2019-01-14T18:52:54.337Z,11.20
2019-01-14T18:55:24.792Z,15.80
2019-01-14T18:57:54.214Z,10.23
2019-01-14T19:00:24.736Z,13.73
2019-01-14T19:02:56.094Z,10.27
2019-01-14T19:05:26.415Z,17.00
2019-01-14T19:07:57.922Z,11.43
2019-01-14T19:10:29.401Z,11.13
2019-01-14T19:12:59.841Z,12.67
2019-01-14T19:15:29.256Z,12.10
2019-01-14T19:17:59.695Z,11.27
2019-01-14T19:20:40.269Z,9.50
2019-01-14T19:23:09.665Z,10.90
2019-01-14T19:25:40.115Z,14.83
2019-01-14T19:28:10.661Z,13.57
2019-01-14T19:30:48.378Z,16.60
2019-01-14T19:33:18.836Z,12.67
2019-01-14T19:35:51.444Z,13.60
2019-01-14T19:38:21.231Z,13.90
2019-01-14T19:40:51.697Z,11.23
2019-01-14T19:43:24.197Z,13.77
2019-01-14T19:45:55.599Z,11.30
2019-01-14T19:48:26.090Z,13.87
2019-01-14T19:50:56.526Z,11.37
2019-01-14T19:53:26.006Z,12.53
2019-01-14T19:56:01.269Z,13.70
2019-01-14T19:58:30.711Z,11.73
2019-01-14T20:01:00.089Z,18.80
2019-01-14T20:03:31.604Z,17.50
2019-01-14T20:06:01.210Z,11.43
2019-01-14T20:08:30.554Z,13.50
2019-01-14T20:11:09.004Z,18.17
2019-01-14T20:13:33.150Z,10.67
2019-01-14T20:16:03.562Z,10.57
2019-01-14T20:18:33.007Z,11.97
2019-01-14T20:21:03.442Z,11.93
2019-01-14T20:23:43.911Z,13.23
2019-01-14T20:26:15.664Z,16.10
2019-01-14T20:28:45.116Z,13.67
2019-01-14T20:31:14.598Z,11.77
2019-01-14T20:33:44.019Z,13.13
2019-01-14T20:36:15.665Z,11.57
2019-01-14T20:38:46.138Z,10.73
2019-01-14T20:41:18.650Z,13.77
2019-01-14T20:43:47.748Z,10.50
2019-01-14T20:46:20.401Z,8.83
2019-01-14T20:48:49.838Z,9.20
2019-01-14T20:51:20.262Z,8.50
2019-01-14T20:53:51.730Z,10.17
2019-01-14T20:56:21.152Z,10.73
2019-01-14T20:58:50.713Z,16.47
2019-01-14T21:01:20.089Z,13.00
2019-01-14T21:03:49.613Z,15.40
2019-01-14T21:06:19.270Z,13.17
2019-01-14T21:08:49.795Z,9.53
2019-01-14T21:11:24.008Z,15.83
2019-01-14T21:13:52.269Z,12.40
2019-01-14T21:16:36.935Z,14.77
2019-01-14T21:19:07.415Z,15.03
2019-01-14T21:21:36.873Z,13.87
2019-01-14T21:24:07.380Z,14.17
2019-01-14T21:26:37.118Z,13.10
2019-01-14T21:29:06.735Z,12.10
2019-01-14T21:31:36.207Z,15.53
2019-01-14T21:34:05.656Z,16.03
2019-01-14T21:36:44.067Z,15.70
2019-01-14T21:39:14.661Z,14.53
2019-01-14T21:41:49.877Z,12.93
2019-01-14T21:44:20.288Z,17.10
2019-01-14T21:46:49.687Z,14.93
2019-01-14T21:49:20.202Z,13.20
2019-01-14T21:51:49.651Z,10.90
2019-01-14T21:54:19.079Z,14.77
2019-01-14T21:56:50.003Z,13.47
2019-01-14T21:59:26.299Z,14.87
2019-01-14T22:01:55.708Z,20.43
2019-01-14T22:04:28.382Z,17.70
2019-01-14T22:07:05.853Z,12.53
2019-01-14T22:09:35.701Z,11.17
2019-01-14T22:12:05.140Z,14.73
2019-01-14T22:14:36.645Z,12.73
2019-01-14T22:17:07.220Z,16.87
2019-01-14T22:19:37.742Z,17.63
2019-01-14T22:22:07.205Z,18.73
2019-01-14T22:24:37.657Z,15.13
2019-01-14T22:27:07.043Z,24.30
2019-01-14T22:29:42.424Z,17.70
2019-01-14T22:32:11.924Z,18.77
2019-01-14T22:34:41.683Z,19.73
2019-01-14T22:37:13.112Z,16.13
2019-01-14T22:39:44.634Z,14.20
2019-01-14T22:42:19.153Z,20.07
2019-01-14T22:44:48.644Z,16.37
2019-01-14T22:47:25.021Z,18.60
2019-01-14T22:49:56.484Z,19.37
2019-01-14T22:52:25.866Z,18.07
2019-01-14T22:54:55.315Z,13.77
2019-01-14T22:57:26.935Z,18.30
2019-01-14T23:00:14.691Z,16.43
2019-01-14T23:02:44.087Z,21.70
2019-01-14T23:05:21.355Z,17.17
2019-01-14T23:07:52.805Z,17.43
2019-01-14T23:10:22.543Z,16.23
2019-01-14T23:12:51.928Z,14.83
2019-01-14T23:15:27.450Z,17.73
2019-01-14T23:17:57.011Z,17.03
2019-01-14T23:20:35.576Z,17.97
2019-01-14T23:23:06.998Z,15.73
2019-01-14T23:25:40.563Z,18.47
2019-01-14T23:28:15.899Z,16.10
2019-01-14T23:30:45.321Z,18.33
2019-01-14T23:33:14.831Z,21.37
2019-01-14T23:35:44.448Z,13.67
2019-01-14T23:38:13.864Z,18.37
2019-01-14T23:40:46.863Z,13.97
2019-01-14T23:43:23.758Z,17.83
2019-01-14T23:45:57.113Z,24.50
2019-01-14T23:48:30.853Z,20.47
2019-01-14T23:51:03.832Z,26.13
2019-01-14T23:53:34.680Z,18.27
2019-01-14T23:56:06.173Z,17.67
2019-01-14T23:58:45.284Z,19.57
